createdAt,value
2018-10-16T00:00:15.275Z,68.65
2018-10-16T00:02:44.377Z,68.63
2018-10-16T00:05:13.043Z,68.75
2018-10-16T00:07:41.530Z,68.30
2018-10-16T00:10:10.608Z,67.85
2018-10-16T00:12:39.223Z,68.61
2018-10-16T00:15:09.342Z,68.27
2018-10-16T00:17:37.862Z,68.87
2018-10-16T00:20:07.102Z,68.76
2018-10-16T00:22:35.614Z,68.73
2018-10-16T00:27:56.946Z,68.98
2018-10-16T00:30:25.526Z,68.75
2018-10-16T00:32:54.055Z,68.82
2018-10-16T00:35:22.587Z,68.41
2018-10-16T00:37:51.060Z,68.65
2018-10-16T00:40:19.601Z,68.42
2018-10-16T00:42:48.103Z,68.41
2018-10-16T00:45:16.614Z,68.91
2018-10-16T00:47:45.258Z,68.57
2018-10-16T00:50:13.758Z,68.80
2018-10-16T00:52:42.246Z,68.58
2018-10-16T00:55:11.022Z,68.55
2018-10-16T00:57:40.153Z,68.37
2018-10-16T01:00:09.797Z,68.64
2018-10-16T01:02:38.291Z,68.52
2018-10-16T01:05:08.033Z,68.11
2018-10-16T01:07:36.566Z,68.28
2018-10-16T01:10:05.755Z,68.37
2018-10-16T01:12:34.317Z,68.65
2018-10-16T01:15:02.858Z,68.70
2018-10-16T01:17:31.358Z,68.72
2018-10-16T01:19:59.858Z,68.83
2018-10-16T01:22:28.363Z,69.01
2018-10-16T01:24:56.898Z,68.88
2018-10-16T01:27:25.418Z,68.37
2018-10-16T01:29:54.135Z,68.98
2018-10-16T01:32:22.686Z,69.50
2018-10-16T01:34:51.180Z,69.19
2018-10-16T01:37:19.667Z,69.33
2018-10-16T01:39:48.155Z,70.06
2018-10-16T01:42:16.636Z,70.05
2018-10-16T01:44:45.131Z,69.85
2018-10-16T01:47:13.610Z,69.48
2018-10-16T01:49:42.103Z,69.47
2018-10-16T01:52:10.641Z,69.92
2018-10-16T01:54:39.138Z,70.00
2018-10-16T01:57:07.691Z,70.41
2018-10-16T01:59:36.183Z,70.34
2018-10-16T02:02:05.717Z,70.80
2018-10-16T02:04:34.263Z,71.01
2018-10-16T02:07:02.942Z,71.21
2018-10-16T02:09:31.452Z,70.88
2018-10-16T02:11:59.955Z,71.53
2018-10-16T02:14:28.668Z,70.95
2018-10-16T02:16:57.191Z,71.43
2018-10-16T02:19:25.684Z,71.00
2018-10-16T02:21:54.167Z,71.70
2018-10-16T02:24:22.859Z,71.62
2018-10-16T02:26:51.456Z,70.81
2018-10-16T02:29:19.941Z,70.85
2018-10-16T02:31:48.486Z,70.88
2018-10-16T02:34:17.008Z,70.49
2018-10-16T02:36:45.536Z,70.54
2018-10-16T02:39:14.019Z,70.38
2018-10-16T02:41:42.510Z,69.40
2018-10-16T02:44:10.991Z,69.88
2018-10-16T02:46:39.491Z,70.21
2018-10-16T02:49:08.189Z,70.43
2018-10-16T02:51:36.695Z,69.92
2018-10-16T02:54:05.413Z,70.45
2018-10-16T02:56:33.919Z,70.60
2018-10-16T02:59:02.454Z,70.73
2018-10-16T03:01:30.961Z,70.58
2018-10-16T03:03:59.551Z,70.40
2018-10-16T03:06:28.039Z,70.66
2018-10-16T03:08:56.558Z,71.03
2018-10-16T03:11:25.070Z,70.65
2018-10-16T03:13:53.593Z,70.64
2018-10-16T03:16:22.074Z,71.20
2018-10-16T03:18:50.574Z,70.69
2018-10-16T03:21:19.066Z,70.82
2018-10-16T03:23:47.586Z,70.55
2018-10-16T03:26:16.123Z,70.25
2018-10-16T03:28:44.621Z,70.35
2018-10-16T03:31:13.106Z,70.99
2018-10-16T03:33:42.579Z,70.95
2018-10-16T03:36:11.056Z,71.11
2018-10-16T03:38:41.058Z,71.55
2018-10-16T03:41:09.625Z,71.10
2018-10-16T03:43:39.813Z,71.47
2018-10-16T03:46:08.403Z,71.36
2018-10-16T03:48:36.994Z,71.54
2018-10-16T03:51:05.882Z,72.11
2018-10-16T03:53:34.374Z,71.59
2018-10-16T03:56:02.859Z,71.91
2018-10-16T03:58:31.355Z,71.67
2018-10-16T04:00:59.834Z,71.39
2018-10-16T04:03:28.429Z,71.21
2018-10-16T04:05:56.924Z,71.00
2018-10-16T04:08:25.411Z,70.74
2018-10-16T04:10:53.887Z,70.74
2018-10-16T04:13:22.372Z,70.85
2018-10-16T04:15:50.852Z,70.47
2018-10-16T04:18:19.338Z,69.95
2018-10-16T04:20:47.838Z,70.07
2018-10-16T04:23:16.409Z,70.25
2018-10-16T04:25:44.928Z,70.13
2018-10-16T04:28:13.418Z,69.95
2018-10-16T04:30:41.974Z,69.70
2018-10-16T04:33:10.667Z,69.89
2018-10-16T04:35:39.146Z,70.04
2018-10-16T04:38:07.654Z,71.00
2018-10-16T04:40:36.151Z,71.40
2018-10-16T04:43:04.679Z,70.80
2018-10-16T04:45:51.556Z,70.96
2018-10-16T04:48:20.067Z,71.12
2018-10-16T04:50:48.564Z,71.47
2018-10-16T04:53:17.059Z,71.18
2018-10-16T04:55:45.547Z,71.45
2018-10-16T04:58:14.034Z,71.02
2018-10-16T05:00:42.515Z,71.14
2018-10-16T05:03:11.014Z,71.38
2018-10-16T05:05:39.534Z,71.85
2018-10-16T05:08:08.030Z,71.76
2018-10-16T05:10:36.520Z,71.29
2018-10-16T05:13:05.633Z,71.88
2018-10-16T05:15:34.836Z,71.89
2018-10-16T05:18:03.551Z,72.61
2018-10-16T05:20:32.019Z,71.59
2018-10-16T05:23:01.072Z,71.50
2018-10-16T05:25:30.625Z,71.51
2018-10-16T05:27:59.353Z,71.37
2018-10-16T05:30:28.128Z,71.88
2018-10-16T05:32:56.717Z,71.84
2018-10-16T05:35:25.234Z,71.57
2018-10-16T05:37:53.718Z,71.85
2018-10-16T05:40:22.255Z,71.88
2018-10-16T05:42:50.743Z,72.05
2018-10-16T05:45:19.399Z,71.97
2018-10-16T05:47:47.911Z,71.92
2018-10-16T05:50:16.439Z,71.92
2018-10-16T05:52:44.944Z,71.33
2018-10-16T05:55:13.458Z,71.62
2018-10-16T05:57:41.957Z,71.48
2018-10-16T06:00:21.402Z,71.87
2018-10-16T06:02:50.744Z,71.65
2018-10-16T06:05:19.261Z,71.77
2018-10-16T06:07:47.735Z,72.01
2018-10-16T06:10:16.238Z,72.13
2018-10-16T06:12:44.726Z,72.61
2018-10-16T06:15:13.247Z,72.06
2018-10-16T06:17:41.750Z,71.73
2018-10-16T06:20:12.457Z,71.30
2018-10-16T06:22:41.415Z,71.44
2018-10-16T06:25:10.551Z,71.84
2018-10-16T06:27:39.981Z,72.45
2018-10-16T06:30:08.909Z,72.60
2018-10-16T06:32:37.858Z,72.18
2018-10-16T06:35:07.352Z,72.00
2018-10-16T06:37:35.822Z,71.52
2018-10-16T06:40:04.750Z,71.72
2018-10-16T06:42:33.259Z,71.83
2018-10-16T06:45:01.837Z,71.37
2018-10-16T06:47:30.462Z,71.23
2018-10-16T06:49:58.880Z,71.33
2018-10-16T06:52:27.358Z,71.01
2018-10-16T06:54:55.911Z,71.16
2018-10-16T06:57:24.393Z,71.49
2018-10-16T06:59:52.867Z,71.84
2018-10-16T07:02:21.380Z,71.09
2018-10-16T07:04:49.895Z,71.82
2018-10-16T07:07:18.560Z,72.07
2018-10-16T07:09:46.950Z,72.02
2018-10-16T07:12:15.460Z,71.97
2018-10-16T07:14:44.026Z,71.95
2018-10-16T07:17:12.501Z,72.61
2018-10-16T07:19:41.046Z,72.73
2018-10-16T07:22:11.063Z,72.66
2018-10-16T07:24:39.590Z,72.38
2018-10-16T07:30:16.205Z,71.36
2018-10-16T07:32:44.723Z,70.98
2018-10-16T07:35:13.251Z,71.28
2018-10-16T07:37:41.899Z,70.95
2018-10-16T07:40:11.722Z,70.61
2018-10-16T07:42:40.602Z,70.30
2018-10-16T07:45:09.235Z,70.01
2018-10-16T07:47:38.216Z,69.17
2018-10-16T07:50:08.979Z,68.77
2018-10-16T07:52:37.568Z,68.60
2018-10-16T07:55:08.132Z,68.30
2018-10-16T07:57:36.626Z,68.28
2018-10-16T08:00:05.994Z,67.51
2018-10-16T08:02:35.879Z,65.24
2018-10-16T08:05:04.459Z,65.75
2018-10-16T08:07:32.967Z,65.27
2018-10-16T08:10:01.463Z,64.26
2018-10-16T08:12:29.991Z,63.68
2018-10-16T08:14:58.499Z,63.16
2018-10-16T08:17:27.042Z,62.37
2018-10-16T08:19:55.698Z,62.79
2018-10-16T08:22:24.175Z,62.25
2018-10-16T08:24:52.682Z,61.02
2018-10-16T08:27:21.178Z,61.09
2018-10-16T08:29:49.670Z,60.21
2018-10-16T08:32:21.247Z,60.07
2018-10-16T08:34:49.827Z,60.02
2018-10-16T08:38:22.747Z,60.01
2018-10-16T08:40:51.404Z,59.88
2018-10-16T08:43:35.762Z,59.78
2018-10-16T08:46:15.355Z,59.27
2018-10-16T08:48:55.140Z,58.47
2018-10-16T08:51:41.331Z,59.14
2018-10-16T08:54:10.245Z,58.87
2018-10-16T08:56:38.766Z,58.59
2018-10-16T08:59:07.278Z,56.34
2018-10-16T09:01:35.801Z,55.31
2018-10-16T09:04:04.562Z,56.39
2018-10-16T09:06:33.403Z,53.61
2018-10-16T09:09:02.283Z,51.51
2018-10-16T09:11:30.890Z,51.71
2018-10-16T09:13:59.500Z,51.67
2018-10-16T09:16:27.967Z,49.33
2018-10-16T09:18:56.462Z,48.42
2018-10-16T09:21:24.965Z,48.67
2018-10-16T09:23:53.459Z,48.68
2018-10-16T09:26:21.990Z,48.60
2018-10-16T09:28:50.507Z,47.30
2018-10-16T09:31:19.015Z,45.79
2018-10-16T09:33:47.523Z,44.67
2018-10-16T09:36:16.023Z,44.31
2018-10-16T09:38:44.564Z,41.78
2018-10-16T09:41:13.151Z,42.62
2018-10-16T09:43:42.947Z,40.78
2018-10-16T09:46:11.466Z,41.16
2018-10-16T09:48:41.310Z,39.90
2018-10-16T09:51:09.838Z,37.98
2018-10-16T09:53:40.360Z,38.18
2018-10-16T09:56:08.918Z,36.33
2018-10-16T09:58:37.440Z,36.99
2018-10-16T10:01:11.327Z,37.03
2018-10-16T10:03:41.498Z,37.01
2018-10-16T10:06:10.036Z,37.69
2018-10-16T10:08:38.922Z,38.28
2018-10-16T10:11:07.596Z,36.13
2018-10-16T10:13:36.062Z,37.47
2018-10-16T10:16:04.758Z,36.40
2018-10-16T10:18:33.367Z,36.10
2018-10-16T10:21:01.883Z,35.02
2018-10-16T10:23:30.520Z,34.85
2018-10-16T10:25:58.905Z,36.82
2018-10-16T10:28:27.404Z,35.64
2018-10-16T10:30:55.947Z,35.56
2018-10-16T10:33:24.468Z,36.48
2018-10-16T10:35:52.986Z,36.39
2018-10-16T10:38:21.621Z,35.81
2018-10-16T10:40:50.148Z,34.35
2018-10-16T10:43:18.647Z,36.05
2018-10-16T10:45:47.227Z,34.43
2018-10-16T10:48:15.736Z,35.79
2018-10-16T10:50:44.459Z,35.80
2018-10-16T10:53:12.814Z,33.81
2018-10-16T10:55:41.324Z,34.70
2018-10-16T10:58:09.843Z,34.32
2018-10-16T11:00:38.413Z,35.93
2018-10-16T11:03:07.092Z,34.97
2018-10-16T11:05:35.556Z,36.68
2018-10-16T11:08:04.117Z,36.47
2018-10-16T11:10:32.711Z,36.03
2018-10-16T11:13:01.696Z,36.21
2018-10-16T11:15:30.199Z,36.02
2018-10-16T11:17:58.709Z,35.44
2018-10-16T11:20:27.234Z,36.42
2018-10-16T11:22:55.739Z,36.18
2018-10-16T11:25:24.284Z,35.82
2018-10-16T11:27:52.774Z,35.81
2018-10-16T11:30:21.371Z,36.03
2018-10-16T11:32:49.864Z,35.60
2018-10-16T11:35:18.386Z,35.71
2018-10-16T11:37:46.918Z,35.75
2018-10-16T11:40:15.770Z,35.87
2018-10-16T11:42:44.270Z,35.63
2018-10-16T11:45:12.875Z,34.99
2018-10-16T11:47:41.287Z,35.04
2018-10-16T11:50:11.095Z,35.98
2018-10-16T11:52:39.638Z,35.83
2018-10-16T11:55:09.715Z,35.23
2018-10-16T11:57:38.283Z,35.30
2018-10-16T12:02:37.520Z,34.79
2018-10-16T12:07:33.902Z,35.59
2018-10-16T12:10:02.420Z,36.02
2018-10-16T12:12:30.922Z,35.37
2018-10-16T12:14:59.439Z,35.89
2018-10-16T12:17:40.803Z,35.27
2018-10-16T12:20:13.567Z,34.56
2018-10-16T12:22:42.244Z,35.32
2018-10-16T12:25:10.871Z,35.60
2018-10-16T12:27:39.306Z,35.39
2018-10-16T12:30:08.335Z,34.35
2018-10-16T12:32:37.111Z,33.78
2018-10-16T12:35:06.165Z,34.83
2018-10-16T12:37:34.722Z,35.63
2018-10-16T12:40:03.373Z,34.19
2018-10-16T12:42:31.831Z,33.88
2018-10-16T12:45:00.351Z,34.87
2018-10-16T12:47:28.843Z,33.66
2018-10-16T12:49:57.366Z,34.65
2018-10-16T12:52:25.867Z,34.98
2018-10-16T12:54:54.388Z,33.78
2018-10-16T12:57:23.003Z,34.45
2018-10-16T12:59:51.473Z,34.24
2018-10-16T13:02:20.572Z,34.36
2018-10-16T13:04:49.067Z,34.94
2018-10-16T13:07:21.958Z,33.86
2018-10-16T13:09:50.467Z,33.80
2018-10-16T13:12:18.960Z,34.20
2018-10-16T13:14:47.462Z,34.28
2018-10-16T13:17:16.011Z,33.35
2018-10-16T13:19:44.494Z,34.29
2018-10-16T13:22:13.079Z,33.86
2018-10-16T13:24:41.530Z,34.34
2018-10-16T13:27:10.045Z,33.82
2018-10-16T13:29:38.672Z,34.00
2018-10-16T13:32:07.068Z,33.60
2018-10-16T13:34:35.806Z,34.52
2018-10-16T13:37:04.369Z,34.08
2018-10-16T13:39:32.851Z,34.20
2018-10-16T13:42:01.515Z,34.31
2018-10-16T13:44:30.023Z,34.58
2018-10-16T13:46:58.526Z,35.44
2018-10-16T13:49:27.028Z,35.99
2018-10-16T13:51:55.535Z,36.46
2018-10-16T13:54:24.043Z,36.31
2018-10-16T13:56:52.736Z,36.81
2018-10-16T13:59:21.191Z,36.81
2018-10-16T14:01:50.539Z,37.25
2018-10-16T14:04:19.070Z,38.05
2018-10-16T14:06:48.449Z,37.75
2018-10-16T14:09:16.963Z,38.41
2018-10-16T14:11:45.459Z,38.09
2018-10-16T14:14:14.046Z,37.75
2018-10-16T14:16:42.516Z,38.13
2018-10-16T14:19:17.546Z,38.47
2018-10-16T14:21:46.120Z,38.09
2018-10-16T14:24:14.642Z,39.58
2018-10-16T14:26:43.142Z,39.64
2018-10-16T14:29:11.638Z,39.97
2018-10-16T14:31:40.150Z,39.78
2018-10-16T14:34:08.717Z,39.21
2018-10-16T14:36:37.182Z,39.15
2018-10-16T14:39:08.671Z,39.92
2018-10-16T14:41:37.521Z,39.38
2018-10-16T14:44:06.630Z,39.45
2018-10-16T14:46:35.298Z,38.81
2018-10-16T14:49:03.851Z,39.16
2018-10-16T14:51:33.002Z,38.79
2018-10-16T14:54:01.811Z,39.55
2018-10-16T14:56:30.798Z,39.23
2018-10-16T14:58:59.515Z,39.23
2018-10-16T15:01:28.438Z,39.57
2018-10-16T15:03:56.985Z,39.78
2018-10-16T15:06:25.579Z,40.42
2018-10-16T15:08:54.138Z,40.54
2018-10-16T15:11:22.831Z,41.11
2018-10-16T15:13:51.591Z,41.48
2018-10-16T15:16:20.200Z,41.56
2018-10-16T15:18:48.703Z,41.82
2018-10-16T15:21:17.212Z,43.14
2018-10-16T15:23:45.790Z,43.52
2018-10-16T15:26:14.294Z,44.38
2018-10-16T15:28:43.645Z,44.02
2018-10-16T15:31:12.154Z,44.53
2018-10-16T15:33:41.142Z,45.59
2018-10-16T15:36:09.678Z,46.66
2018-10-16T15:38:38.204Z,47.12
2018-10-16T15:41:07.285Z,47.15
2018-10-16T15:43:35.860Z,47.61
2018-10-16T15:46:04.461Z,48.44
2018-10-16T15:48:32.951Z,49.02
2018-10-16T15:51:01.454Z,48.59
2018-10-16T15:53:30.009Z,49.02
2018-10-16T15:55:58.622Z,49.76
2018-10-16T15:58:27.093Z,49.99
2018-10-16T16:00:55.630Z,50.81
2018-10-16T16:03:25.009Z,50.77
2018-10-16T16:05:53.648Z,51.17
2018-10-16T16:08:22.158Z,50.77
2018-10-16T16:10:50.684Z,50.53
2018-10-16T16:13:19.195Z,50.58
2018-10-16T16:15:47.753Z,50.76
2018-10-16T16:18:16.331Z,50.32
2018-10-16T16:20:44.800Z,50.79
2018-10-16T16:23:13.299Z,50.66
2018-10-16T16:25:41.853Z,51.44
2018-10-16T16:28:10.369Z,51.06
2018-10-16T16:30:38.872Z,51.30
2018-10-16T16:33:07.409Z,51.01
2018-10-16T16:35:35.943Z,51.55
2018-10-16T16:38:05.884Z,52.88
2018-10-16T16:40:34.430Z,53.50
2018-10-16T16:43:02.966Z,53.04
2018-10-16T16:45:31.560Z,53.68
2018-10-16T16:48:00.061Z,54.01
2018-10-16T16:50:30.233Z,54.16
2018-10-16T16:52:58.796Z,54.54
2018-10-16T16:55:27.291Z,53.96
2018-10-16T16:57:55.844Z,54.49
2018-10-16T17:00:24.338Z,54.52
2018-10-16T17:02:52.838Z,54.64
2018-10-16T17:05:21.343Z,54.50
2018-10-16T17:07:49.879Z,55.02
2018-10-16T17:10:18.402Z,55.67
2018-10-16T17:12:46.960Z,56.76
2018-10-16T17:15:16.580Z,55.90
2018-10-16T17:17:46.282Z,56.23
2018-10-16T17:20:27.416Z,56.48
2018-10-16T17:22:55.953Z,58.01
2018-10-16T17:25:24.685Z,59.19
2018-10-16T17:27:53.091Z,59.20
2018-10-16T17:30:21.625Z,59.77
2018-10-16T17:32:50.157Z,59.96
2018-10-16T17:35:18.687Z,59.65
2018-10-16T17:37:47.217Z,59.52
2018-10-16T17:40:17.018Z,59.28
2018-10-16T17:42:45.827Z,59.09
2018-10-16T17:45:15.693Z,58.71
2018-10-16T17:47:44.269Z,59.12
2018-10-16T17:50:14.746Z,59.26
2018-10-16T17:52:43.259Z,59.46
2018-10-16T17:55:12.822Z,58.76
2018-10-16T17:57:41.493Z,58.22
2018-10-16T18:00:13.304Z,58.86
2018-10-16T18:02:43.319Z,58.84
2018-10-16T18:05:12.324Z,59.32
2018-10-16T18:07:40.852Z,58.65
2018-10-16T18:10:09.571Z,59.17
2018-10-16T18:12:38.075Z,59.52
2018-10-16T18:15:08.253Z,59.86
2018-10-16T18:17:36.721Z,59.61
2018-10-16T18:20:06.426Z,59.35
2018-10-16T18:22:34.930Z,59.44
2018-10-16T18:25:03.453Z,59.30
2018-10-16T18:27:31.973Z,59.00
2018-10-16T18:30:00.492Z,59.04
2018-10-16T18:32:28.982Z,58.98
2018-10-16T18:34:57.498Z,59.59
2018-10-16T18:37:26.119Z,59.94
2018-10-16T18:39:54.671Z,59.48
2018-10-16T18:42:23.142Z,59.32
2018-10-16T18:44:51.696Z,60.51
2018-10-16T18:47:20.212Z,60.07
2018-10-16T18:49:48.780Z,60.86
2018-10-16T18:52:17.286Z,60.83
2018-10-16T18:54:45.796Z,61.01
2018-10-16T18:57:14.385Z,61.13
2018-10-16T18:59:42.855Z,60.35
2018-10-16T19:02:11.392Z,60.24
2018-10-16T19:16:09.567Z,61.39
2018-10-16T19:18:38.313Z,61.46
2018-10-16T19:21:07.248Z,62.29
2018-10-16T19:23:35.763Z,62.22
2018-10-16T19:26:04.307Z,62.19
2018-10-16T19:28:32.842Z,61.75
2018-10-16T19:31:01.362Z,62.76
2018-10-16T19:33:30.050Z,63.05
2018-10-16T19:35:58.599Z,63.16
2018-10-16T19:38:27.096Z,63.12
2018-10-16T19:40:55.612Z,63.11
2018-10-16T19:43:24.128Z,62.50
2018-10-16T19:45:52.641Z,62.83
2018-10-16T19:48:21.165Z,63.05
2018-10-16T19:50:49.671Z,62.48
2018-10-16T19:53:18.200Z,62.65
2018-10-16T19:55:46.719Z,62.76
2018-10-16T19:58:15.247Z,62.35
2018-10-16T20:00:43.791Z,62.66
2018-10-16T20:03:13.178Z,62.73
2018-10-16T20:05:41.659Z,62.80
2018-10-16T20:08:10.199Z,62.69
2018-10-16T20:10:38.715Z,62.95
2018-10-16T20:13:07.209Z,62.47
2018-10-16T20:15:35.782Z,63.35
2018-10-16T20:18:04.247Z,63.66
2018-10-16T20:20:32.772Z,63.56
2018-10-16T20:23:01.410Z,63.33
2018-10-16T20:25:30.035Z,63.44
2018-10-16T20:27:58.895Z,63.85
2018-10-16T20:30:27.399Z,64.05
2018-10-16T20:32:55.947Z,63.99
2018-10-16T20:35:24.470Z,64.91
2018-10-16T20:40:45.218Z,64.60
2018-10-16T20:43:13.730Z,64.62
2018-10-16T20:45:42.259Z,64.57
2018-10-16T20:48:10.762Z,64.26
2018-10-16T20:50:39.318Z,63.91
2018-10-16T20:53:07.841Z,64.03
2018-10-16T20:55:36.363Z,64.13
2018-10-16T20:58:04.994Z,64.52
2018-10-16T21:00:40.298Z,64.75
2018-10-16T21:03:08.799Z,64.69
2018-10-16T21:05:37.342Z,64.66
2018-10-16T21:08:05.829Z,64.79
2018-10-16T21:10:34.363Z,64.69
2018-10-16T21:13:03.031Z,64.68
2018-10-16T21:15:31.509Z,64.21
2018-10-16T21:18:00.019Z,64.84
2018-10-16T21:20:28.520Z,65.08
2018-10-16T21:22:57.100Z,65.02
2018-10-16T21:25:25.586Z,65.47
2018-10-16T21:27:54.097Z,65.45
2018-10-16T21:30:22.634Z,65.64
2018-10-16T21:32:51.142Z,65.69
2018-10-16T21:35:19.648Z,65.82
2018-10-16T21:37:48.167Z,65.74
2018-10-16T21:40:16.686Z,65.79
2018-10-16T21:42:45.303Z,65.98
2018-10-16T21:45:13.858Z,66.11
2018-10-16T21:47:42.336Z,66.27
2018-10-16T21:50:10.862Z,66.35
2018-10-16T21:52:39.394Z,66.24
2018-10-16T21:55:08.057Z,66.24
2018-10-16T21:57:36.547Z,66.34
2018-10-16T22:00:06.171Z,66.22
2018-10-16T22:02:40.447Z,65.92
2018-10-16T22:05:09.062Z,65.89
2018-10-16T22:07:37.536Z,66.80
2018-10-16T22:10:06.592Z,66.60
2018-10-16T22:12:35.102Z,66.96
2018-10-16T22:15:03.687Z,66.69
2018-10-16T22:17:32.163Z,66.63
2018-10-16T22:20:00.678Z,66.73
2018-10-16T22:22:29.199Z,67.05
2018-10-16T22:25:04.103Z,66.92
2018-10-16T22:27:32.664Z,66.72
2018-10-16T22:30:01.403Z,67.09
2018-10-16T22:32:29.982Z,67.30
2018-10-16T22:34:58.508Z,67.93
2018-10-16T22:37:27.018Z,67.42
2018-10-16T22:39:55.527Z,67.94
2018-10-16T22:42:24.057Z,67.79
2018-10-16T22:44:52.575Z,67.68
2018-10-16T22:47:21.077Z,68.17
2018-10-16T22:49:49.575Z,68.23
2018-10-16T22:52:18.135Z,68.20
2018-10-16T22:54:46.639Z,68.04
2018-10-16T22:57:15.158Z,67.92
2018-10-16T22:59:44.183Z,67.83
2018-10-16T23:02:12.795Z,67.82
2018-10-16T23:04:41.359Z,68.25
2018-10-16T23:07:10.010Z,68.84
2018-10-16T23:09:38.463Z,68.92
2018-10-16T23:12:07.390Z,68.12
2018-10-16T23:14:35.888Z,68.47
2018-10-16T23:17:04.501Z,68.40
2018-10-16T23:19:33.279Z,68.34
2018-10-16T23:22:01.775Z,68.89
2018-10-16T23:24:30.276Z,68.57
2018-10-16T23:26:58.786Z,69.04
2018-10-16T23:29:27.295Z,69.24
2018-10-16T23:31:55.798Z,69.04
2018-10-16T23:34:24.318Z,68.87
2018-10-16T23:36:52.882Z,69.24
2018-10-16T23:39:21.442Z,69.28
2018-10-16T23:41:49.922Z,69.06
2018-10-16T23:44:18.463Z,69.01
2018-10-16T23:46:46.957Z,69.45
2018-10-16T23:49:15.502Z,69.62
2018-10-16T23:51:43.994Z,69.72
2018-10-16T23:54:16.471Z,69.60
2018-10-16T23:56:44.994Z,69.86
2018-10-16T23:59:13.592Z,69.93
